createdAt,value
2022-10-25T00:04:25.031Z,100.0
2022-10-25T00:09:56.722Z,100.0
2022-10-25T00:15:35.094Z,100.0
2022-10-25T00:21:06.550Z,100.0
2022-10-25T00:26:38.290Z,100.0
2022-10-25T00:32:10.253Z,100.0
2022-10-25T00:37:41.851Z,100.0
2022-10-25T00:43:13.369Z,100.0
2022-10-25T00:48:45.145Z,100.0
2022-10-25T00:54:16.943Z,100.0
2022-10-25T00:59:48.581Z,100.0
2022-10-25T01:05:20.513Z,100.0
2022-10-25T01:10:53.725Z,100.0
2022-10-25T01:16:28.409Z,100.0
2022-10-25T01:21:59.898Z,100.0
2022-10-25T01:27:31.582Z,100.0
2022-10-25T01:33:03.318Z,100.0
2022-10-25T01:38:35.050Z,100.0
2022-10-25T01:44:06.759Z,100.0
2022-10-25T01:49:38.475Z,100.0
2022-10-25T01:55:10.242Z,100.0
2022-10-25T02:00:42.078Z,100.0
2022-10-25T02:06:13.622Z,100.0
2022-10-25T02:11:45.414Z,100.0
2022-10-25T02:17:21.474Z,100.0
2022-10-25T02:22:53.174Z,100.0
2022-10-25T02:28:24.970Z,100.0
2022-10-25T02:33:56.675Z,100.0
2022-10-25T02:39:31.989Z,100.0
2022-10-25T02:50:31.846Z,100.0
2022-10-25T02:56:03.670Z,100.0
2022-10-25T03:01:35.428Z,100.0
2022-10-25T03:07:07.050Z,100.0
2022-10-25T03:12:38.788Z,100.0
2022-10-25T03:18:14.742Z,100.0
2022-10-25T03:23:46.558Z,100.0
2022-10-25T03:29:18.274Z,100.0
2022-10-25T03:34:50.026Z,100.0
2022-10-25T03:40:21.735Z,100.0
2022-10-25T03:45:53.494Z,100.0
2022-10-25T03:51:25.128Z,100.0
2022-10-25T03:56:56.935Z,100.0
2022-10-25T04:02:28.560Z,100.0
2022-10-25T04:08:00.350Z,100.0
2022-10-25T04:13:32.074Z,100.0
2022-10-25T04:19:08.139Z,100.0
2022-10-25T04:24:40.125Z,100.0
2022-10-25T04:30:11.674Z,100.0
2022-10-25T04:35:43.355Z,100.0
2022-10-25T04:41:15.118Z,100.0
2022-10-25T04:46:49.243Z,100.0
2022-10-25T04:52:19.274Z,100.0
2022-10-25T04:57:51.071Z,100.0
2022-10-25T05:03:22.827Z,100.0
2022-10-25T05:08:54.450Z,100.0
2022-10-25T05:14:26.226Z,100.0
2022-10-25T05:20:04.301Z,100.0
2022-10-25T05:25:36.007Z,100.0
2022-10-25T05:31:07.788Z,100.0
2022-10-25T05:36:39.614Z,100.0
2022-10-25T05:42:11.265Z,100.0
2022-10-25T05:47:42.982Z,100.0
2022-10-25T05:53:14.765Z,100.0
2022-10-25T05:58:46.431Z,100.0
2022-10-25T06:04:18.138Z,100.0
2022-10-25T06:09:49.861Z,100.0
2022-10-25T06:15:21.598Z,100.0
2022-10-25T06:20:57.817Z,100.0
2022-10-25T06:26:29.739Z,100.0
2022-10-25T06:32:01.403Z,100.0
2022-10-25T06:37:32.805Z,100.0
2022-10-25T06:43:04.458Z,100.0
2022-10-25T06:48:36.726Z,100.0
2022-10-25T06:54:08.024Z,100.0
2022-10-25T06:59:40.191Z,100.0
2022-10-25T07:05:11.524Z,100.0
2022-10-25T07:10:43.199Z,100.0
2022-10-25T07:16:14.968Z,100.0
2022-10-25T07:21:51.135Z,100.0
2022-10-25T07:27:22.804Z,100.0
2022-10-25T07:32:54.567Z,100.0
2022-10-25T07:38:28.284Z,100.0
2022-10-25T07:43:58.003Z,100.0
2022-10-25T07:49:29.672Z,100.0
2022-10-25T07:55:01.401Z,100.0
2022-10-25T08:00:33.150Z,100.0
2022-10-25T08:06:05.370Z,100.0
2022-10-25T08:11:36.690Z,100.0
2022-10-25T08:17:08.280Z,100.0
2022-10-25T08:22:45.010Z,100.0
2022-10-25T08:28:17.636Z,100.0
2022-10-25T08:33:47.852Z,100.0
2022-10-25T08:39:19.586Z,100.0
2022-10-25T08:44:51.421Z,100.0
2022-10-25T08:50:23.134Z,100.0
2022-10-25T08:56:16.383Z,99.01
2022-10-25T09:01:26.874Z,99.47
2022-10-25T09:06:58.538Z,98.71
2022-10-25T09:12:30.047Z,95.49
2022-10-25T09:18:01.822Z,96.58
2022-10-25T09:23:37.847Z,97.3
2022-10-25T09:29:09.583Z,93.56
2022-10-25T09:34:41.284Z,93.66
2022-10-25T09:40:13.194Z,95.56
2022-10-25T09:45:44.674Z,94.46
2022-10-25T09:51:16.391Z,93.47
2022-10-25T09:56:48.250Z,93.32
2022-10-25T10:02:19.906Z,93.82
2022-10-25T10:07:51.551Z,93.04
2022-10-25T10:13:23.268Z,93.18
2022-10-25T10:18:55.042Z,91.17
2022-10-25T10:24:31.157Z,91.08
2022-10-25T10:30:02.874Z,91.73
2022-10-25T10:35:34.988Z,90.82
2022-10-25T10:41:06.371Z,90.47
2022-10-25T10:46:37.976Z,91.39
2022-10-25T10:52:09.783Z,88.24
2022-10-25T10:57:41.493Z,89.51
2022-10-25T11:03:13.461Z,90.22
2022-10-25T11:08:44.954Z,94.4
2022-10-25T11:14:16.728Z,93.68
2022-10-25T11:19:48.322Z,96.21
2022-10-25T11:25:24.810Z,97.4
2022-10-25T11:30:56.157Z,95.92
2022-10-25T11:36:27.881Z,94.92
2022-10-25T11:42:00.035Z,95.12
2022-10-25T11:47:31.903Z,95.85
2022-10-25T11:53:03.354Z,94.44
2022-10-25T11:58:34.851Z,93.08
2022-10-25T12:04:06.611Z,92.6
2022-10-25T12:09:38.243Z,92.26
2022-10-25T12:15:10.005Z,90.84
2022-10-25T12:20:41.708Z,89.59
2022-10-25T12:26:19.786Z,91.72
2022-10-25T12:31:51.627Z,92.75
2022-10-25T12:37:23.385Z,94.56
2022-10-25T12:42:54.990Z,89.38
2022-10-25T12:48:27.098Z,87.96
2022-10-25T12:53:58.519Z,92.29
2022-10-25T12:59:30.176Z,90.4
2022-10-25T13:05:02.855Z,90.33
2022-10-25T13:10:33.838Z,91.23
2022-10-25T13:16:05.529Z,91.73
2022-10-25T13:21:37.070Z,90.14
2022-10-25T13:27:13.386Z,90.61
2022-10-25T13:32:45.351Z,91.75
2022-10-25T13:38:16.722Z,89.92
2022-10-25T13:43:48.550Z,87.98
2022-10-25T13:49:20.100Z,87.63
2022-10-25T13:54:51.869Z,87.8
2022-10-25T14:00:23.546Z,87.34
2022-10-25T14:05:55.374Z,87.39
2022-10-25T14:11:27.190Z,88.75
2022-10-25T14:16:58.876Z,88.13
2022-10-25T14:22:33.378Z,88.97
2022-10-25T14:28:06.997Z,88.98
2022-10-25T14:33:42.125Z,88.27
2022-10-25T14:39:10.155Z,87.91
2022-10-25T14:44:41.758Z,87.09
2022-10-25T14:50:13.551Z,89.58
2022-10-25T14:55:46.052Z,90.57
2022-10-25T15:01:17.914Z,88.13
2022-10-25T15:06:49.418Z,90.14
2022-10-25T15:12:21.235Z,89.82
2022-10-25T15:17:52.781Z,88.05
2022-10-25T15:23:24.600Z,88.28
2022-10-25T15:29:01.002Z,89.69
2022-10-25T15:34:32.411Z,90.79
2022-10-25T15:40:04.319Z,92.25
2022-10-25T15:45:35.858Z,92.61
2022-10-25T15:51:07.735Z,93.14
2022-10-25T15:56:39.386Z,93.45
2022-10-25T16:02:11.330Z,93.24
2022-10-25T16:07:42.815Z,93.23
2022-10-25T16:13:14.646Z,93.84
2022-10-25T16:18:46.392Z,94.17
2022-10-25T16:24:18.138Z,94.53
2022-10-25T16:29:54.156Z,94.89
2022-10-25T16:35:25.818Z,95.63
2022-10-25T16:40:57.599Z,95.42
2022-10-25T16:46:29.398Z,95.78
2022-10-25T16:52:00.823Z,95.46
2022-10-25T16:57:33.578Z,96.34
2022-10-25T17:03:05.334Z,96.03
2022-10-25T17:08:37.842Z,95.64
2022-10-25T17:14:08.889Z,96.05
2022-10-25T17:19:40.559Z,96.67
2022-10-25T17:25:12.391Z,96.5
2022-10-25T17:30:48.434Z,96.47
2022-10-25T17:36:20.068Z,96.52
2022-10-25T17:41:52.543Z,97.65
2022-10-25T17:47:23.902Z,97.65
2022-10-25T17:52:55.262Z,97.43
2022-10-25T17:58:26.926Z,97.55
2022-10-25T18:03:58.715Z,98.36
2022-10-25T18:09:30.410Z,98.72
2022-10-25T18:15:02.258Z,99.12
2022-10-25T18:20:34.039Z,98.87
2022-10-25T18:26:05.553Z,98.4
2022-10-25T18:31:41.722Z,98.55
2022-10-25T18:37:13.289Z,98.73
2022-10-25T18:42:45.022Z,98.01
2022-10-25T18:48:16.645Z,97.49
2022-10-25T18:53:48.613Z,98.37
2022-10-25T18:59:20.233Z,98.92
2022-10-25T19:04:51.982Z,99.38
2022-10-25T19:10:23.686Z,99.76
2022-10-25T19:15:55.456Z,99.55
2022-10-25T19:21:27.214Z,98.44
2022-10-25T19:26:58.962Z,97.53
2022-10-25T19:32:35.040Z,96.83
2022-10-25T19:38:07.490Z,95.93
2022-10-25T19:43:39.206Z,95.22
2022-10-25T19:49:10.854Z,95.27
2022-10-25T19:54:42.539Z,95.6
2022-10-25T20:00:14.291Z,95.88
2022-10-25T20:05:46.035Z,95.55
2022-10-25T20:11:17.757Z,96.09
2022-10-25T20:16:49.513Z,96.03
2022-10-25T20:22:21.133Z,96.22
2022-10-25T20:27:53.537Z,96.5
2022-10-25T20:33:31.277Z,96.21
2022-10-25T20:39:02.773Z,96.55
2022-10-25T20:44:34.557Z,96.73
2022-10-25T20:50:06.242Z,96.07
2022-10-25T20:55:38.401Z,96.09
2022-10-25T21:01:10.601Z,96.23
2022-10-25T21:06:42.443Z,97.56
2022-10-25T21:12:13.767Z,97.03
2022-10-25T21:17:45.728Z,97.17
2022-10-25T21:23:17.372Z,96.67
2022-10-25T21:28:49.452Z,96.73
2022-10-25T21:34:25.039Z,96.1
2022-10-25T21:39:56.793Z,97.12
2022-10-25T21:45:28.506Z,96.73
2022-10-25T21:51:00.142Z,96.23
2022-10-25T21:56:32.146Z,96.69
2022-10-25T22:02:04.040Z,97.92
2022-10-25T22:07:35.385Z,98.39
2022-10-25T22:13:07.125Z,98.46
2022-10-25T22:18:38.861Z,99.53
2022-10-25T22:24:10.722Z,97.93
2022-10-25T22:29:42.350Z,97.76
2022-10-25T22:35:18.526Z,98.27
2022-10-25T22:40:50.574Z,98.08
2022-10-25T22:46:21.802Z,97.77
2022-10-25T22:51:53.626Z,97.42
2022-10-25T22:57:25.303Z,97.06
2022-10-25T23:02:57.305Z,97.32
2022-10-25T23:08:28.918Z,97.62
2022-10-25T23:14:00.471Z,97.83
2022-10-25T23:19:32.326Z,96.95
2022-10-25T23:25:03.914Z,97.5
2022-10-25T23:30:35.656Z,97.96
2022-10-25T23:36:11.749Z,98.52
2022-10-25T23:41:43.871Z,98.56
2022-10-25T23:47:15.830Z,97.74
2022-10-25T23:52:47.216Z,97.35
2022-10-25T23:58:18.774Z,96.65
